»·PEaware :: SWA1091 KLAS-KRNO

SWA1091 :: KLAS-KRNO

FLIGHT INFORMATION

Flight Status: Arrived
Operator:
Southwest Airlines
More flights by this operator :: More flights under this callsign
Pilot: Ryan B. (8502)
Aircraft: BOEING 737-400
(B734)
More flights by this aircraft type
Origin: KLAS McCarran Intl
United States
Destination: KRNO Reno/Tahoe Intl
United States
More flights between these airports :: More routes between these airports
Route: +SHEAD1 KENNO KENNO2
File this flight plan on PilotEdge
Remarks:
Altitude:
(Current/Filed)
34,000ft
Speed:
(Current/Filed)
444kts
Departed: 28-Oct-17 05:24 PM
Arrived: 28-Oct-17 06:28 PM
Distance/Time
Traveled:
300nm/1:03
Distance/Time
To Go:
Arrived

Flight Plot

Page will automatically refresh every two minutes.

Flight plan parsing failed; only flown route is shown


Map Options




Map Legend


Flown Route
Filed Route
Departure Airport
Arrival Airport
Navaid (VOR, NDB)
Fix

Horizontal Profiles

Position Reports

Time Latitude Longitude Heading Altitude Ground
Speed
28-Oct-17 17:17 36.081156 -115.147875 63 2096ft 0kts
28-Oct-17 17:18 36.081156 -115.147875 63 2096ft 0kts
28-Oct-17 17:19 36.081156 -115.147875 63 2096ft 0kts
28-Oct-17 17:20 36.081156 -115.147875 63 2096ft 0kts
28-Oct-17 17:21 36.081156 -115.147875 63 2096ft 0kts
28-Oct-17 17:22 36.081156 -115.147875 63 2096ft 0kts
28-Oct-17 17:23 36.081072 -115.148088 63 2097ft 2kts
28-Oct-17 17:24 36.081172 -115.148617 156 2099ft 0kts
28-Oct-17 17:25 36.081171 -115.148617 156 2099ft 0kts
28-Oct-17 17:26 36.079518 -115.147725 153 2100ft 11kts
28-Oct-17 17:27 36.079227 -115.147537 152 2100ft 0kts
28-Oct-17 17:28 36.079070 -115.147437 153 2100ft 5kts
28-Oct-17 17:29 36.078218 -115.139247 91 2076ft 41kts
28-Oct-17 17:30 36.078232 -115.123057 98 2035ft 33kts
28-Oct-17 17:31 36.076389 -115.122469 271 2038ft 23kts
28-Oct-17 17:32 36.076416 -115.123908 269 2039ft 0kts
28-Oct-17 17:33 36.076394 -115.126423 269 2044ft 58kts
28-Oct-17 17:34 36.075772 -115.188403 273 3429ft 192kts
28-Oct-17 17:35 36.061102 -115.258011 209 5053ft 253kts
28-Oct-17 17:36 36.002116 -115.287019 201 6756ft 293kts
28-Oct-17 17:37 35.925541 -115.356460 226 9177ft 307kts
28-Oct-17 17:38 35.906242 -115.380007 226 10181ft 306kts
28-Oct-17 17:39 35.883074 -115.432102 275 11625ft 307kts
28-Oct-17 17:40 35.888143 -115.544502 274 12919ft 362kts
28-Oct-17 17:41 35.890647 -115.656264 272 14921ft 378kts
28-Oct-17 17:42 35.892843 -115.786106 272 17127ft 390kts
28-Oct-17 17:43 35.895081 -115.921300 272 19220ft 401kts
28-Oct-17 17:44 35.948981 -116.028809 331 21016ft 402kts
28-Oct-17 17:45 36.042450 -116.108397 324 22779ft 414kts
28-Oct-17 17:46 36.134658 -116.194472 323 24342ft 426kts
28-Oct-17 17:47 36.203542 -116.259099 323 25494ft 432kts
28-Oct-17 17:48 36.261005 -116.313222 323 26376ft 437kts
28-Oct-17 17:49 36.357772 -116.404586 323 27692ft 447kts
28-Oct-17 17:50 36.456376 -116.498004 323 29460ft 442kts
28-Oct-17 17:51 36.553479 -116.590294 323 30957ft 440kts
28-Oct-17 17:52 36.646693 -116.679304 322 32185ft 438kts
28-Oct-17 17:53 36.742524 -116.771141 322 33363ft 434kts
28-Oct-17 17:54 36.837673 -116.862435 322 34088ft 437kts
28-Oct-17 17:55 36.934269 -116.955439 323 34135ft 441kts
28-Oct-17 17:56 37.031684 -117.049522 321 34167ft 445kts
28-Oct-17 17:57 37.127294 -117.142073 321 34149ft 435kts
28-Oct-17 17:58 37.222761 -117.234726 321 34177ft 437kts
28-Oct-17 17:59 37.317643 -117.329126 318 34176ft 436kts
28-Oct-17 18:00 37.409230 -117.428542 319 34154ft 437kts
28-Oct-17 18:01 37.500978 -117.527834 312 34116ft 435kts
28-Oct-17 18:02 37.574972 -117.648327 307 34142ft 436kts
28-Oct-17 18:03 37.645420 -117.761341 307 34114ft 436kts
28-Oct-17 18:04 37.709909 -117.864740 307 34066ft 436kts
28-Oct-17 18:05 37.791707 -117.921281 350 34068ft 440kts
28-Oct-17 18:06 37.903911 -117.977771 336 34073ft 439kts
28-Oct-17 18:07 38.016026 -118.038655 335 34102ft 438kts
28-Oct-17 18:08 38.124584 -118.097840 335 34106ft 438kts
28-Oct-17 18:09 38.236073 -118.158752 335 34140ft 438kts
28-Oct-17 18:10 38.347302 -118.219840 335 34016ft 439kts
28-Oct-17 18:11 38.450611 -118.297953 313 32855ft 436kts
28-Oct-17 18:12 38.536853 -118.406835 315 31426ft 443kts
28-Oct-17 18:13 38.624139 -118.514772 315 29926ft 432kts
28-Oct-17 18:14 38.709252 -118.620380 316 28371ft 422kts
28-Oct-17 18:15 38.785108 -118.715294 315 26486ft 415kts
28-Oct-17 18:16 38.865503 -118.815444 315 24383ft 396kts
28-Oct-17 18:17 38.943669 -118.912998 315 22391ft 397kts
28-Oct-17 18:18 39.021794 -119.010838 314 20406ft 387kts
28-Oct-17 18:19 39.096016 -119.104505 314 18481ft 375kts
28-Oct-17 18:20 39.167424 -119.194458 314 16348ft 367kts
28-Oct-17 18:21 39.239397 -119.285465 314 14157ft 360kts
28-Oct-17 18:22 39.307974 -119.372203 314 13026ft 319kts
28-Oct-17 18:23 39.372485 -119.448022 324 12421ft 322kts
28-Oct-17 18:24 39.442711 -119.513042 324 10864ft 305kts
28-Oct-17 18:25 39.510254 -119.570718 342 10004ft 270kts
28-Oct-17 18:26 39.578825 -119.597732 344 9057ft 248kts
28-Oct-17 18:27 39.642456 -119.622718 344 9026ft 238kts
28-Oct-17 18:28 39.694282 -119.663603 280 8909ft 239kts
28-Oct-17 18:29 39.675653 -119.741836 233 8241ft 235kts
28-Oct-17 18:30 39.623049 -119.777265 169 7380ft 222kts
28-Oct-17 18:31 39.570435 -119.769095 178 6271ft 182kts
28-Oct-17 18:32 39.524985 -119.769139 177 4857ft 152kts
28-Oct-17 18:33 39.493290 -119.769681 206 4407ft 22kts

Navigation Log

Ident Type
Flight plan parsing failed, navigation log unavailable